Time;durP1;ratioP1;P1;durP2;ratioP2;P2;SDS_P1;SDS_P2;PMS_P1;PMS_P2;Temp;Humidity;BMP_temperature;BMP_pressure;BME280_temperature;BME280_humidity;BME280_pressure;Samples;Min_cycle;Max_cycle;Signal;HPM_P1;HPM_P2
2023/04/02 00:01:54;;;;;;;8.30;2.38;;;3.80;99.90;;;;;;5006592;28;20417;-75
2023/04/02 00:04:21;;;;;;;8.20;2.05;;;3.80;99.90;;;;;;5007045;28;20464;-75
2023/04/02 00:06:53;;;;;;;8.27;2.35;;;3.80;99.90;;;;;;5005745;28;20828;-75
2023/04/02 00:09:29;;;;;;;7.70;2.20;;;3.80;99.90;;;;;;5006500;28;20420;-75
2023/04/02 00:11:56;;;;;;;7.30;2.28;;;3.80;99.90;;;;;;5006346;28;20450;-75
2023/04/02 00:14:30;;;;;;;6.32;1.80;;;3.70;99.90;;;;;;5005726;28;20429;-75
2023/04/02 00:16:58;;;;;;;4.38;1.52;;;3.70;99.90;;;;;;5006565;28;20409;-75
2023/04/02 00:19:39;;;;;;;5.10;1.70;;;3.70;99.90;;;;;;5006457;28;20437;-75
2023/04/02 00:22:08;;;;;;;5.85;2.33;;;3.70;99.90;;;;;;5006909;28;20413;-74
2023/04/02 00:24:34;;;;;;;7.63;2.30;;;3.60;99.90;;;;;;5006271;28;20444;-75
2023/04/02 00:27:00;;;;;;;6.05;1.85;;;3.60;99.90;;;;;;5008007;28;20405;-75
2023/04/02 00:29:25;;;;;;;6.05;2.08;;;3.60;99.90;;;;;;5007074;28;20471;-75
2023/04/02 00:31:53;;;;;;;4.75;1.80;;;3.60;99.90;;;;;;5007645;28;20412;-75
2023/04/02 00:34:35;;;;;;;5.95;1.85;;;3.60;99.90;;;;;;5007354;28;20448;-75
2023/04/02 00:37:02;;;;;;;5.38;1.80;;;3.50;99.90;;;;;;5006244;28;20445;-75
2023/04/02 00:39:31;;;;;;;6.65;1.80;;;3.50;99.90;;;;;;5006960;28;20417;-75
2023/04/02 00:42:04;;;;;;;5.80;1.70;;;3.50;99.90;;;;;;5006123;28;20442;-75
2023/04/02 00:44:43;;;;;;;5.65;1.73;;;3.50;99.90;;;;;;5007091;28;20936;-75
2023/04/02 00:47:20;;;;;;;4.78;1.60;;;3.50;99.90;;;;;;5005136;28;20871;-76
2023/04/02 00:49:47;;;;;;;4.43;1.63;;;3.40;99.90;;;;;;5006228;28;20425;-75
2023/04/02 00:52:21;;;;;;;4.53;1.48;;;3.40;99.90;;;;;;5004949;28;20420;-75
2023/04/02 00:54:55;;;;;;;5.43;1.50;;;3.40;99.90;;;;;;5002737;28;20451;-75
2023/04/02 00:57:24;;;;;;;6.07;1.80;;;3.40;99.90;;;;;;5006653;28;20496;-76
2023/04/02 00:59:53;;;;;;;5.13;1.58;;;3.30;99.90;;;;;;5006173;28;20483;-75
2023/04/02 01:02:27;;;;;;;4.97;1.90;;;3.30;99.90;;;;;;5005779;28;20419;-75
2023/04/02 01:04:58;;;;;;;4.72;1.92;;;3.30;99.90;;;;;;5005445;28;20505;-75
2023/04/02 01:07:41;;;;;;;3.67;1.55;;;3.20;99.90;;;;;;4995420;28;20492;-75
2023/04/02 01:10:38;;;;;;;5.82;1.60;;;3.20;99.90;;;;;;5013248;28;20551;-75
2023/04/02 01:13:10;;;;;;;5.10;1.60;;;3.20;99.90;;;;;;5012463;28;20444;-75
2023/04/02 01:15:59;;;;;;;4.70;1.40;;;3.20;99.90;;;;;;5005814;28;20409;-75
2023/04/02 01:19:00;;;;;;;5.45;1.50;;;3.20;99.90;;;;;;5004858;28;20421;-75
2023/04/02 01:21:51;;;;;;;5.28;1.30;;;3.20;99.90;;;;;;4988333;28;20443;-75
2023/04/02 01:24:18;;;;;;;5.57;1.30;;;3.10;99.90;;;;;;4995829;28;20425;-75
2023/04/02 01:26:56;;;;;;;5.93;1.60;;;3.10;99.90;;;;;;5004835;28;20419;-75
2023/04/02 01:29:44;;;;;;;5.20;1.20;;;3.10;99.90;;;;;;5004970;28;20417;-75
2023/04/02 01:32:13;;;;;;;4.35;1.25;;;3.10;99.90;;;;;;5004592;28;20405;-75
2023/04/02 01:34:40;;;;;;;5.90;1.67;;;3.00;99.90;;;;;;5004544;28;20410;-75
2023/04/02 01:37:35;;;;;;;5.10;1.40;;;3.00;99.90;;;;;;4994436;28;20401;-75
2023/04/02 01:40:13;;;;;;;4.57;1.10;;;3.00;99.90;;;;;;5005503;28;20436;-75
2023/04/02 01:42:44;;;;;;;5.88;1.33;;;3.00;99.90;;;;;;5004645;28;20525;-75
2023/04/02 01:45:18;;;;;;;6.43;1.63;;;2.90;99.90;;;;;;5003719;28;20909;-75
2023/04/02 01:47:44;;;;;;;6.17;1.43;;;2.90;99.90;;;;;;5004192;28;20943;-75
2023/04/02 01:50:21;;;;;;;6.78;1.30;;;2.90;99.90;;;;;;4995948;28;20470;-75
2023/04/02 01:52:54;;;;;;;4.82;1.10;;;2.90;99.90;;;;;;5008056;28;20521;-75
2023/04/02 01:55:31;;;;;;;4.60;1.03;;;2.90;99.90;;;;;;5007784;28;20420;-75
2023/04/02 01:57:58;;;;;;;5.40;1.60;;;2.80;99.90;;;;;;5009231;28;20496;-75
2023/04/02 02:00:26;;;;;;;4.93;1.17;;;2.80;99.90;;;;;;5008942;28;20409;-75
2023/04/02 02:02:52;;;;;;;4.43;1.13;;;2.80;99.90;;;;;;5000029;28;20448;-75
2023/04/02 02:05:21;;;;;;;4.27;1.20;;;2.70;99.90;;;;;;5008266;28;20421;-75
2023/04/02 02:07:48;;;;;;;7.13;1.30;;;2.70;99.90;;;;;;5006986;28;20416;-75
2023/04/02 02:10:24;;;;;;;3.42;1.10;;;2.70;99.90;;;;;;5010351;28;20538;-75
2023/04/02 02:12:50;;;;;;;4.90;1.33;;;2.70;99.90;;;;;;5006790;28;20412;-75
2023/04/02 02:15:18;;;;;;;5.10;1.50;;;2.70;99.90;;;;;;5015289;28;20927;-75
2023/04/02 02:17:44;;;;;;;4.00;1.30;;;2.60;99.90;;;;;;5020180;28;20418;-75
2023/04/02 02:20:12;;;;;;;6.05;1.50;;;2.60;99.90;;;;;;5043230;28;20401;-75
2023/04/02 02:22:46;;;;;;;7.35;1.50;;;2.60;99.90;;;;;;5009454;28;20405;-75
2023/04/02 02:25:18;;;;;;;6.03;1.40;;;2.60;99.90;;;;;;5009774;28;20429;-75
2023/04/02 02:27:57;;;;;;;7.03;1.20;;;2.60;99.90;;;;;;5009311;28;20447;-75
2023/04/02 02:30:31;;;;;;;6.50;1.67;;;2.60;99.90;;;;;;5006841;28;20520;-75
2023/04/02 02:33:03;;;;;;;4.57;1.00;;;2.60;99.90;;;;;;5005860;28;20474;-75
2023/04/02 02:35:35;;;;;;;6.25;1.30;;;2.60;99.90;;;;;;5009082;28;20417;-75
2023/04/02 02:38:26;;;;;;;6.05;1.33;;;2.50;99.90;;;;;;5002536;28;20421;-75
2023/04/02 02:40:55;;;;;;;5.22;1.02;;;2.50;99.90;;;;;;5001921;28;20420;-75
2023/04/02 02:43:21;;;;;;;5.07;1.30;;;2.50;99.90;;;;;;5007271;28;20418;-75
2023/04/02 02:45:49;;;;;;;5.23;1.23;;;2.50;99.90;;;;;;5006513;28;20449;-75
2023/04/02 02:48:18;;;;;;;5.22;1.00;;;2.50;99.90;;;;;;5006413;28;20413;-75
2023/04/02 02:50:45;;;;;;;5.00;1.37;;;2.50;99.90;;;;;;5008022;28;20470;-75
2023/04/02 02:53:20;;;;;;;5.78;1.25;;;2.40;99.90;;;;;;4988207;28;20408;-75
2023/04/02 02:55:48;;;;;;;4.72;1.05;;;2.40;99.90;;;;;;5007749;28;20443;-75
2023/04/02 02:58:22;;;;;;;5.38;1.20;;;2.40;99.90;;;;;;5006497;28;20466;-76
2023/04/02 03:00:48;;;;;;;6.47;1.45;;;2.40;99.90;;;;;;5010799;28;20419;-75
2023/04/02 03:03:20;;;;;;;4.95;1.00;;;2.40;99.90;;;;;;5008182;28;20401;-75
2023/04/02 03:05:52;;;;;;;5.25;1.25;;;2.40;99.90;;;;;;5006854;28;20465;-75
2023/04/02 03:08:41;;;;;;;6.00;1.23;;;2.40;99.90;;;;;;5006673;28;20428;-75
2023/04/02 03:11:26;;;;;;;6.25;1.20;;;2.30;99.90;;;;;;5006084;28;20417;-75
2023/04/02 03:13:59;;;;;;;4.90;1.30;;;2.40;99.90;;;;;;5010170;28;20464;-75
2023/04/02 03:16:34;;;;;;;5.75;1.17;;;2.30;99.90;;;;;;5010280;28;20409;-75
2023/04/02 03:19:15;;;;;;;4.85;0.88;;;2.40;99.90;;;;;;5011475;28;20541;-75
2023/04/02 03:21:50;;;;;;;5.53;1.23;;;2.30;99.90;;;;;;5008545;28;20504;-76
2023/04/02 03:24:40;;;;;;;6.78;1.50;;;2.30;99.90;;;;;;5006268;28;20780;-75
2023/04/02 03:27:25;;;;;;;7.53;1.23;;;2.30;99.90;;;;;;5045163;28;20412;-75
2023/04/02 03:30:21;;;;;;;5.38;1.20;;;2.30;99.90;;;;;;5006432;28;20452;-75
2023/04/02 03:32:50;;;;;;;4.47;1.03;;;2.30;99.90;;;;;;5015222;28;20413;-75
2023/04/02 03:35:32;;;;;;;5.45;1.30;;;2.30;99.90;;;;;;5005595;28;20412;-75
2023/04/02 03:38:03;;;;;;;5.90;1.30;;;2.30;99.90;;;;;;5008044;28;20408;-75
2023/04/02 03:40:36;;;;;;;9.25;1.63;;;2.30;99.90;;;;;;4989729;28;20904;-75
2023/04/02 03:43:12;;;;;;;5.47;1.48;;;2.20;99.90;;;;;;5006002;28;20411;-75
2023/04/02 03:45:42;;;;;;;4.93;1.00;;;2.20;99.90;;;;;;4989871;28;20457;-75
2023/04/02 03:48:30;;;;;;;5.50;1.13;;;2.20;99.90;;;;;;5005902;28;20421;-75
2023/04/02 03:51:21;;;;;;;5.93;1.00;;;2.20;99.90;;;;;;5006050;28;20445;-75
2023/04/02 03:53:47;;;;;;;6.88;1.10;;;2.20;99.90;;;;;;5002836;28;20462;-75
2023/04/02 03:56:30;;;;;;;6.05;1.48;;;2.20;99.90;;;;;;5013671;28;20429;-75
2023/04/02 03:59:20;;;;;;;6.63;1.25;;;2.20;99.90;;;;;;5010435;28;20409;-75
2023/04/02 04:02:10;;;;;;;4.82;1.45;;;2.10;99.90;;;;;;4994047;28;20931;-75
2023/04/02 04:04:40;;;;;;;6.30;1.27;;;2.10;99.90;;;;;;5005488;28;20427;-75
2023/04/02 04:07:13;;;;;;;6.07;1.33;;;2.10;99.90;;;;;;5004929;28;20913;-76
2023/04/02 04:09:41;;;;;;;4.93;1.05;;;2.10;99.90;;;;;;5011656;28;20442;-76
2023/04/02 04:12:26;;;;;;;6.63;1.40;;;2.10;99.90;;;;;;5005100;28;20429;-76
2023/04/02 04:15:00;;;;;;;5.72;0.95;;;2.20;99.90;;;;;;5005114;28;20428;-76
2023/04/02 04:17:38;;;;;;;5.10;1.10;;;2.10;99.90;;;;;;5004866;28;20424;-76
2023/04/02 04:20:16;;;;;;;5.32;0.98;;;2.20;99.90;;;;;;4988190;28;20449;-76
2023/04/02 04:22:42;;;;;;;4.70;0.90;;;2.10;99.90;;;;;;4988688;28;20492;-76
2023/04/02 04:25:28;;;;;;;5.63;1.30;;;2.20;99.90;;;;;;5004580;28;20518;-76
2023/04/02 04:28:27;;;;;;;6.55;1.10;;;2.10;99.90;;;;;;4995848;28;20452;-75
2023/04/02 04:31:19;;;;;;;7.07;1.40;;;2.20;99.90;;;;;;5035776;28;20428;-76
2023/04/02 04:33:49;;;;;;;6.65;1.13;;;2.20;99.90;;;;;;5044947;28;20507;-76
2023/04/02 04:36:32;;;;;;;7.50;1.27;;;2.10;99.90;;;;;;5004658;28;20417;-75
2023/04/02 04:39:06;;;;;;;5.90;1.42;;;2.10;99.90;;;;;;4988539;28;20964;-76
2023/04/02 04:41:36;;;;;;;5.22;1.42;;;2.10;99.90;;;;;;5002005;28;20984;-75
2023/04/02 04:44:05;;;;;;;6.17;1.10;;;2.10;99.90;;;;;;5006484;28;20409;-75
2023/04/02 04:47:02;;;;;;;7.30;1.25;;;2.10;99.90;;;;;;5005698;28;20429;-75
2023/04/02 04:49:52;;;;;;;6.18;1.10;;;2.10;99.90;;;;;;5025599;28;20425;-76
2023/04/02 04:52:20;;;;;;;5.50;1.13;;;2.20;99.90;;;;;;5004046;28;20516;-75
2023/04/02 04:54:46;;;;;;;7.70;1.60;;;2.10;99.90;;;;;;5005522;28;20416;-75
2023/04/02 04:57:35;;;;;;;4.20;0.85;;;2.10;99.90;;;;;;5003665;28;20412;-75
2023/04/02 05:00:08;;;;;;;5.35;1.10;;;2.10;99.90;;;;;;5003250;28;20420;-75
2023/04/02 05:02:43;;;;;;;6.33;1.20;;;2.10;99.90;;;;;;5005550;28;20420;-76
2023/04/02 05:05:28;;;;;;;7.15;1.42;;;2.10;99.90;;;;;;5004845;28;20482;-75
2023/04/02 05:08:25;;;;;;;6.97;1.10;;;2.10;99.90;;;;;;5005548;28;20429;-75
2023/04/02 05:11:04;;;;;;;7.83;1.60;;;2.10;99.90;;;;;;5004962;28;20583;-76
2023/04/02 05:13:40;;;;;;;6.47;1.00;;;2.10;99.90;;;;;;5003776;28;20780;-75
2023/04/02 05:16:20;;;;;;;6.47;1.17;;;2.10;99.90;;;;;;5002944;28;20432;-75
2023/04/02 05:19:02;;;;;;;6.33;0.97;;;2.20;99.90;;;;;;5005525;28;20425;-76
2023/04/02 05:21:36;;;;;;;7.40;1.00;;;2.10;99.90;;;;;;5003541;28;20424;-75
2023/04/02 05:24:46;;;;;;;7.18;1.30;;;2.10;99.90;;;;;;5008531;28;20417;-76
2023/04/02 05:27:20;;;;;;;6.18;1.20;;;2.10;99.90;;;;;;5007528;28;20429;-76
2023/04/02 05:29:52;;;;;;;5.88;1.23;;;2.10;99.90;;;;;;5003896;28;20428;-75
2023/04/02 05:32:31;;;;;;;8.13;1.08;;;2.20;99.90;;;;;;5004082;28;20505;-75
2023/04/02 05:34:58;;;;;;;6.88;1.00;;;2.20;99.90;;;;;;5003603;28;20795;-75
2023/04/02 05:37:28;;;;;;;6.07;1.10;;;2.20;99.90;;;;;;5006121;28;20417;-75
2023/04/02 05:39:57;;;;;;;4.60;1.23;;;2.20;99.90;;;;;;4992631;28;20429;-75
2023/04/02 05:42:28;;;;;;;6.03;1.33;;;2.20;99.90;;;;;;5002773;28;20458;-75
2023/04/02 05:45:27;;;;;;;4.28;0.98;;;2.20;99.90;;;;;;5006213;28;20843;-76
2023/04/02 05:48:00;;;;;;;5.88;1.20;;;2.20;99.90;;;;;;5004023;28;20460;-75
2023/04/02 05:50:39;;;;;;;3.97;1.00;;;2.20;99.90;;;;;;5008118;28;20401;-75
2023/04/02 05:53:16;;;;;;;4.90;0.97;;;2.20;99.90;;;;;;5006232;28;20987;-75
2023/04/02 05:55:52;;;;;;;5.73;0.93;;;2.30;99.90;;;;;;5003846;28;20472;-76
2023/04/02 05:58:31;;;;;;;6.00;1.10;;;2.30;99.90;;;;;;5009918;28;20420;-75
2023/04/02 06:01:16;;;;;;;7.05;1.02;;;2.30;99.90;;;;;;5010800;28;20416;-76
2023/04/02 06:04:10;;;;;;;3.88;0.75;;;2.30;99.90;;;;;;5008127;28;20428;-76
2023/04/02 06:06:38;;;;;;;8.48;1.40;;;2.30;99.90;;;;;;5006703;28;20517;-76
2023/04/02 06:09:26;;;;;;;6.43;0.90;;;2.30;99.90;;;;;;5010105;28;20468;-75
2023/04/02 06:12:18;;;;;;;4.87;1.43;;;2.40;99.90;;;;;;5003972;28;20457;-76
2023/04/02 06:14:45;;;;;;;6.47;1.30;;;2.40;99.90;;;;;;5012113;28;20455;-75
2023/04/02 06:17:15;;;;;;;6.35;1.13;;;2.50;99.90;;;;;;5004584;28;20750;-76
2023/04/02 06:19:41;;;;;;;4.43;0.88;;;2.50;99.90;;;;;;5003702;28;20417;-76
2023/04/02 06:22:17;;;;;;;4.32;0.80;;;2.50;99.90;;;;;;5005280;28;20414;-76
2023/04/02 06:24:45;;;;;;;5.35;1.17;;;2.50;99.90;;;;;;5004675;28;20498;-76
2023/04/02 06:27:15;;;;;;;7.75;1.08;;;2.60;99.90;;;;;;5004332;28;20419;-76
2023/04/02 06:29:44;;;;;;;5.38;0.80;;;2.60;99.90;;;;;;5004066;28;20439;-76
2023/04/02 06:32:11;;;;;;;4.57;1.00;;;2.70;99.90;;;;;;5001866;28;20448;-75
2023/04/02 06:34:41;;;;;;;4.88;1.05;;;2.70;99.90;;;;;;5004071;28;20413;-75
2023/04/02 06:37:35;;;;;;;4.80;0.85;;;2.80;99.90;;;;;;5003132;28;20413;-75
2023/04/02 06:40:03;;;;;;;4.45;0.75;;;2.90;99.90;;;;;;5005092;28;20927;-78
2023/04/02 06:42:36;;;;;;;4.38;0.73;;;2.90;99.90;;;;;;4990585;28;20509;-78
2023/04/02 06:45:03;;;;;;;4.63;0.90;;;2.90;99.90;;;;;;5007737;28;20591;-78
2023/04/02 06:47:34;;;;;;;2.75;0.70;;;3.00;99.90;;;;;;5007155;28;20405;-78
2023/04/02 06:50:04;;;;;;;3.53;0.70;;;3.00;99.90;;;;;;4989271;28;20847;-78
2023/04/02 06:52:51;;;;;;;3.70;0.80;;;3.00;99.90;;;;;;5007285;28;20462;-78
2023/04/02 06:55:43;;;;;;;5.20;0.70;;;3.10;99.90;;;;;;5003135;28;20563;-78
2023/04/02 06:58:09;;;;;;;3.65;0.55;;;3.20;99.90;;;;;;5006942;28;20409;-77
2023/04/02 07:00:36;;;;;;;5.10;0.77;;;3.20;99.90;;;;;;4990270;28;20417;-76
2023/04/02 07:03:05;;;;;;;4.68;0.70;;;3.30;99.90;;;;;;5008636;28;20421;-75
2023/04/02 07:05:31;;;;;;;3.85;0.70;;;3.40;99.90;;;;;;5009572;28;20935;-76
2023/04/02 07:07:57;;;;;;;4.03;0.75;;;3.50;99.90;;;;;;5010352;28;20473;-78
2023/04/02 07:10:23;;;;;;;6.50;0.95;;;3.60;99.90;;;;;;5010466;28;20938;-78
2023/04/02 07:12:48;;;;;;;3.83;0.83;;;3.60;99.90;;;;;;5008267;28;20896;-78
2023/04/02 07:15:22;;;;;;;4.28;0.98;;;3.60;99.90;;;;;;5009357;28;20401;-75
2023/04/02 07:17:48;;;;;;;5.10;0.80;;;3.70;99.90;;;;;;5008239;28;20420;-76
2023/04/02 07:20:44;;;;;;;5.90;0.90;;;3.80;99.90;;;;;;5010902;28;20408;-75
2023/04/02 07:23:10;;;;;;;4.80;0.80;;;3.90;99.90;;;;;;5008557;28;20454;-75
2023/04/02 07:25:36;;;;;;;4.60;0.90;;;3.90;99.90;;;;;;5009059;28;20447;-76
2023/04/02 07:28:01;;;;;;;4.60;1.13;;;4.00;99.90;;;;;;5008604;28;20804;-78
2023/04/02 07:30:27;;;;;;;3.20;0.83;;;4.10;99.90;;;;;;5010273;28;20897;-78
2023/04/02 07:32:53;;;;;;;4.88;1.00;;;4.20;99.90;;;;;;5007849;28;20470;-77
2023/04/02 07:35:18;;;;;;;3.13;0.70;;;4.30;99.90;;;;;;5005970;28;20416;-76
2023/04/02 07:37:44;;;;;;;5.67;0.90;;;4.30;99.90;;;;;;5007322;28;20439;-75
2023/04/02 07:40:19;;;;;;;5.93;1.40;;;4.40;99.90;;;;;;5005398;28;20543;-76
2023/04/02 07:42:45;;;;;;;3.95;1.35;;;4.50;99.90;;;;;;5007193;28;20953;-76
2023/04/02 07:45:11;;;;;;;4.00;0.63;;;4.60;99.90;;;;;;5008620;28;20441;-77
2023/04/02 07:47:38;;;;;;;4.60;0.70;;;4.70;99.90;;;;;;5008252;28;20404;-75
2023/04/02 07:50:07;;;;;;;3.63;0.88;;;4.70;99.90;;;;;;5009205;28;20427;-75
2023/04/02 07:52:33;;;;;;;5.20;1.00;;;4.70;99.90;;;;;;5004866;28;20426;-77
2023/04/02 07:54:58;;;;;;;3.85;0.80;;;4.70;99.90;;;;;;5005819;28;21000;-78
2023/04/02 07:57:24;;;;;;;4.37;0.90;;;4.80;99.90;;;;;;5006449;28;20448;-76
2023/04/02 07:59:50;;;;;;;6.13;1.13;;;4.80;99.90;;;;;;5006218;28;20418;-75
2023/04/02 08:02:19;;;;;;;4.38;0.80;;;4.80;99.90;;;;;;5002798;28;20455;-77
2023/04/02 08:04:46;;;;;;;4.33;0.67;;;4.90;99.90;;;;;;4985240;28;20443;-78
2023/04/02 08:07:12;;;;;;;3.55;0.80;;;4.90;99.90;;;;;;4999835;28;20511;-77
2023/04/02 08:09:37;;;;;;;3.42;0.80;;;5.00;99.90;;;;;;5008327;28;20435;-77
2023/04/02 08:12:03;;;;;;;4.67;0.90;;;5.10;99.90;;;;;;5002726;28;20405;-76
2023/04/02 08:14:32;;;;;;;4.73;0.70;;;5.10;99.90;;;;;;5003979;28;20439;-78
2023/04/02 08:17:00;;;;;;;5.00;0.85;;;5.10;99.90;;;;;;4995081;28;20421;-77
2023/04/02 08:19:27;;;;;;;3.50;0.70;;;5.20;99.90;;;;;;4995664;28;20431;-77
2023/04/02 08:21:53;;;;;;;3.13;0.70;;;5.20;99.90;;;;;;5000727;28;20920;-78
2023/04/02 08:24:19;;;;;;;3.92;0.70;;;5.20;99.90;;;;;;4995485;28;20898;-77
2023/04/02 08:26:46;;;;;;;5.57;0.97;;;5.30;99.90;;;;;;5001515;28;21045;-79
2023/04/02 08:29:12;;;;;;;3.17;0.65;;;5.40;99.90;;;;;;4994739;28;20419;-78
2023/04/02 08:31:38;;;;;;;4.38;0.80;;;5.50;99.90;;;;;;5011597;28;20422;-76
2023/04/02 08:34:03;;;;;;;4.57;0.90;;;5.60;99.90;;;;;;5050761;28;20413;-76
2023/04/02 08:36:33;;;;;;;2.07;0.57;;;5.70;99.90;;;;;;5063160;28;20815;-76
2023/04/02 08:38:59;;;;;;;3.87;0.90;;;5.70;99.90;;;;;;5009478;28;20405;-78
2023/04/02 08:41:26;;;;;;;4.40;0.80;;;5.70;99.90;;;;;;5007888;28;20433;-75
2023/04/02 08:44:07;;;;;;;3.88;0.50;;;5.80;99.90;;;;;;5006189;28;20494;-76
2023/04/02 08:46:58;;;;;;;3.85;0.52;;;5.80;99.90;;;;;;5008657;28;20488;-75
2023/04/02 08:49:36;;;;;;;3.05;0.50;;;5.90;99.90;;;;;;5003250;28;20542;-74
2023/04/02 08:52:02;;;;;;;2.85;0.57;;;6.00;99.90;;;;;;5003224;28;20425;-75
2023/04/02 08:54:36;;;;;;;2.07;0.77;;;6.10;99.90;;;;;;5013334;28;20419;-75
2023/04/02 08:57:36;;;;;;;2.60;0.50;;;6.10;99.90;;;;;;5008377;28;20923;-75
2023/04/02 09:00:24;;;;;;;3.90;0.50;;;6.20;99.90;;;;;;5006928;28;20441;-75
2023/04/02 09:03:07;;;;;;;3.38;0.63;;;6.20;99.90;;;;;;5003465;28;20447;-75
2023/04/02 09:05:36;;;;;;;2.58;0.55;;;6.30;99.90;;;;;;4988884;28;20432;-76
2023/04/02 09:08:05;;;;;;;3.28;0.55;;;6.30;99.90;;;;;;5001493;28;21386;-76
2023/04/02 09:11:04;;;;;;;4.10;0.80;;;6.40;99.90;;;;;;5008502;28;20433;-76
2023/04/02 09:13:36;;;;;;;2.57;0.60;;;6.50;99.90;;;;;;5003500;28;20432;-76
2023/04/02 09:16:08;;;;;;;2.55;0.43;;;6.60;99.90;;;;;;5003296;28;20519;-76
2023/04/02 09:18:35;;;;;;;3.75;0.50;;;6.70;99.90;;;;;;5006039;28;20477;-76
2023/04/02 09:21:21;;;;;;;3.10;0.52;;;6.70;99.90;;;;;;5006411;28;20405;-76
2023/04/02 09:23:48;;;;;;;3.70;0.50;;;7.00;99.90;;;;;;5004739;28;20420;-76
2023/04/02 09:26:29;;;;;;;3.50;0.50;;;7.80;99.90;;;;;;5003354;28;20437;-76
2023/04/02 09:29:33;;;;;;;3.00;0.45;;;8.80;99.90;;;;;;5003004;28;20425;-76
2023/04/02 09:32:26;;;;;;;3.88;0.50;;;9.70;99.90;;;;;;5004452;28;20539;-76
2023/04/02 09:35:08;;;;;;;3.15;0.60;;;10.40;99.90;;;;;;5003902;28;20436;-76
2023/04/02 09:37:34;;;;;;;2.78;0.45;;;10.80;99.90;;;;;;5003480;28;20502;-76
2023/04/02 09:40:18;;;;;;;3.20;0.50;;;11.10;99.90;;;;;;5003586;28;20440;-77
2023/04/02 09:42:43;;;;;;;3.40;0.60;;;11.50;99.90;;;;;;4997755;28;20441;-76
2023/04/02 09:45:18;;;;;;;4.28;0.60;;;11.90;99.90;;;;;;4987958;28;20437;-77
2023/04/02 09:47:44;;;;;;;4.65;0.85;;;12.10;99.90;;;;;;4987946;28;20804;-76
2023/04/02 09:50:25;;;;;;;2.17;0.40;;;12.40;99.90;;;;;;5003171;28;20425;-77
2023/04/02 09:52:51;;;;;;;2.75;0.40;;;12.70;99.90;;;;;;5002779;28;20409;-77
2023/04/02 09:55:23;;;;;;;3.10;0.40;;;12.80;99.90;;;;;;5004538;28;20413;-77
2023/04/02 09:57:49;;;;;;;3.05;0.50;;;13.00;99.90;;;;;;5011938;28;20419;-77
2023/04/02 10:00:22;;;;;;;1.98;0.50;;;13.30;99.90;;;;;;5005825;28;20441;-77
2023/04/02 10:03:24;;;;;;;2.37;0.50;;;13.40;99.90;;;;;;5009851;28;20513;-77
2023/04/02 10:06:11;;;;;;;1.33;0.30;;;13.70;99.90;;;;;;5010076;28;20798;-77
2023/04/02 10:08:40;;;;;;;1.83;0.50;;;13.80;99.50;;;;;;5008760;28;20429;-75
2023/04/02 10:11:20;;;;;;;2.67;0.30;;;13.90;98.70;;;;;;5001744;28;20482;-75
2023/04/02 10:14:00;;;;;;;2.30;0.40;;;13.80;96.90;;;;;;5003703;28;20777;-76
2023/04/02 10:16:32;;;;;;;2.63;0.30;;;13.90;99.10;;;;;;5003965;28;20425;-76
2023/04/02 10:19:41;;;;;;;2.30;0.40;;;14.00;94.60;;;;;;5010722;28;20420;-76
2023/04/02 10:22:15;;;;;;;3.38;0.30;;;14.10;94.70;;;;;;5009061;28;20419;-77
2023/04/02 10:24:41;;;;;;;2.25;0.40;;;14.00;95.00;;;;;;5008322;28;20473;-77
2023/04/02 10:27:32;;;;;;;2.42;0.45;;;14.20;95.80;;;;;;5010856;28;20405;-77
2023/04/02 10:30:16;;;;;;;1.48;0.30;;;14.30;91.90;;;;;;5007625;28;20916;-77
2023/04/02 10:32:57;;;;;;;3.85;0.60;;;14.30;94.40;;;;;;5007077;28;20417;-76
2023/04/02 10:35:41;;;;;;;1.60;0.30;;;14.40;94.20;;;;;;5009086;28;20773;-77
2023/04/02 10:38:27;;;;;;;1.90;0.32;;;14.50;93.30;;;;;;5008543;28;20543;-77
2023/04/02 10:41:15;;;;;;;2.13;0.30;;;14.60;93.70;;;;;;5007612;28;20659;-77
2023/04/02 10:43:40;;;;;;;2.83;0.40;;;14.50;91.90;;;;;;5008492;28;20489;-77
2023/04/02 10:46:21;;;;;;;4.00;0.47;;;14.70;92.60;;;;;;5009362;28;20970;-77
2023/04/02 10:48:50;;;;;;;1.90;0.30;;;14.70;91.30;;;;;;5008690;28;20989;-77
2023/04/02 10:51:52;;;;;;;3.00;0.30;;;14.80;92.50;;;;;;5009296;28;20447;-77
2023/04/02 10:54:26;;;;;;;2.40;0.38;;;14.90;91.20;;;;;;5007730;28;20447;-77
2023/04/02 10:56:53;;;;;;;3.70;0.40;;;15.00;92.20;;;;;;5007626;28;20421;-77
2023/04/02 10:59:30;;;;;;;2.42;0.45;;;15.10;92.70;;;;;;4991244;28;20748;-77
2023/04/02 11:02:00;;;;;;;2.90;0.50;;;15.10;88.90;;;;;;5007600;28;21359;-77
2023/04/02 11:04:43;;;;;;;1.85;0.30;;;15.10;88.70;;;;;;5008402;28;20942;-77
2023/04/02 11:07:18;;;;;;;2.03;0.30;;;15.20;89.10;;;;;;5009231;28;20417;-77
2023/04/02 11:09:48;;;;;;;1.45;0.30;;;15.30;90.60;;;;;;5007812;28;20483;-77
2023/04/02 11:12:22;;;;;;;2.20;0.40;;;15.30;86.50;;;;;;5007239;28;20405;-77
2023/04/02 11:14:50;;;;;;;2.25;0.30;;;15.50;87.00;;;;;;5008903;28;20409;-77
2023/04/02 11:17:17;;;;;;;1.50;0.30;;;15.50;89.50;;;;;;5006315;28;20462;-77
2023/04/02 11:19:43;;;;;;;2.07;0.30;;;15.60;85.60;;;;;;5008050;28;20458;-77
2023/04/02 11:22:21;;;;;;;2.88;0.30;;;15.60;89.70;;;;;;5010069;28;20415;-77
2023/04/02 11:24:49;;;;;;;2.67;0.50;;;15.80;89.30;;;;;;5008291;28;20420;-77
2023/04/02 11:27:35;;;;;;;3.08;0.50;;;15.80;88.90;;;;;;5008217;28;20444;-77
2023/04/02 11:30:01;;;;;;;5.85;0.60;;;15.80;85.70;;;;;;5009132;28;20453;-77
2023/04/02 11:32:38;;;;;;;2.78;0.40;;;15.70;86.30;;;;;;5044111;28;20465;-77
2023/04/02 11:35:31;;;;;;;2.75;0.30;;;15.80;85.30;;;;;;5020987;28;20430;-77
2023/04/02 11:38:03;;;;;;;1.15;0.30;;;15.80;81.00;;;;;;5007133;28;20431;-77
2023/04/02 11:40:53;;;;;;;2.72;0.40;;;15.70;86.20;;;;;;4991076;28;20503;-77
2023/04/02 11:43:35;;;;;;;2.42;0.40;;;16.10;83.70;;;;;;5008556;28;20481;-77
2023/04/02 11:46:25;;;;;;;2.65;0.50;;;16.30;81.40;;;;;;5007216;28;20971;-77
2023/04/02 11:48:53;;;;;;;2.63;0.50;;;16.10;79.70;;;;;;5008843;28;20424;-77
2023/04/02 11:51:22;;;;;;;1.45;0.50;;;16.00;80.70;;;;;;5011126;28;20750;-77
2023/04/02 11:53:50;;;;;;;2.20;0.40;;;16.10;81.90;;;;;;5005552;28;20421;-77
2023/04/02 11:56:35;;;;;;;2.47;0.30;;;16.10;79.70;;;;;;5008464;28;20442;-77
2023/04/02 11:59:18;;;;;;;1.70;0.38;;;16.30;83.10;;;;;;5009986;28;20476;-77
2023/04/02 12:02:17;;;;;;;1.48;0.30;;;16.50;83.40;;;;;;4998549;28;21143;-77
2023/04/02 12:05:15;;;;;;;3.57;0.40;;;16.60;80.70;;;;;;4989820;28;20437;-77
2023/04/02 12:07:45;;;;;;;2.33;0.35;;;16.70;80.80;;;;;;5018605;28;20418;-77
2023/04/02 12:10:33;;;;;;;1.80;0.30;;;16.60;80.60;;;;;;5044479;28;20180;-77
2023/04/02 12:12:58;;;;;;;;;;;16.70;79.90;;;;;;4997923;28;20128;-77
2023/04/02 12:15:39;;;;;;;;;;;16.70;77.30;;;;;;5066992;28;20061;-77
2023/04/02 12:18:10;;;;;;;;;;;16.30;80.30;;;;;;5009090;28;19926;-77
2023/04/02 12:20:36;;;;;;;;;;;16.30;81.80;;;;;;5008802;28;19922;-77
2023/04/02 12:23:02;;;;;;;;;;;16.10;76.30;;;;;;4991278;28;19928;-77
2023/04/02 12:25:30;;;;;;;;;;;16.10;73.70;;;;;;5008823;28;19947;-77
2023/04/02 12:28:08;;;;;;;;;;;16.10;77.00;;;;;;5008120;28;20402;-77
2023/04/02 12:30:34;;;;;;;;;;;16.20;78.70;;;;;;5022034;28;19964;-77
2023/04/02 12:33:36;;;;;;;;;;;16.40;80.80;;;;;;5008392;28;19925;-77
2023/04/02 12:36:03;;;;;;;;;;;16.50;79.00;;;;;;5056049;28;19921;-77
2023/04/02 12:38:31;;;;;;;;;;;16.40;79.90;;;;;;5016203;28;19921;-77
2023/04/02 12:41:02;;;;;;;;;;;16.40;75.00;;;;;;5008490;28;20438;-77
2023/04/02 12:43:29;;;;;;;;;;;16.50;79.60;;;;;;5005160;28;19974;-77
2023/04/02 12:45:56;;;;;;;;;;;16.70;73.50;;;;;;5006103;28;19922;-78
2023/04/02 12:48:22;;;;;;;;;;;16.70;75.30;;;;;;5006996;28;20011;-77
2023/04/02 12:50:48;;;;;;;;;;;16.70;75.80;;;;;;5005662;28;19975;-77
2023/04/02 12:53:21;;;;;;;;;;;16.80;72.10;;;;;;5008638;28;19952;-76
2023/04/02 12:55:48;;;;;;;;;;;16.90;72.00;;;;;;5007542;28;20349;-76
2023/04/02 13:00:40;;;;;;;1.45;0.30;;;16.90;76.20;;;;;;5104301;27;20438;-75
2023/04/02 13:03:16;;;;;;;1.80;0.30;;;17.00;75.20;;;;;;5104535;28;20926;-75
2023/04/02 13:05:55;;;;;;;1.98;0.40;;;17.10;72.50;;;;;;5103821;28;20437;-75
2023/04/02 13:08:29;;;;;;;2.33;0.40;;;17.00;75.40;;;;;;5138877;27;20464;-75
2023/04/02 13:11:00;;;;;;;1.55;0.20;;;16.80;74.90;;;;;;5104452;28;20443;-75
2023/04/02 13:13:32;;;;;;;;;;;17.00;74.90;;;;;;5137022;27;20184;-74
2023/04/02 13:16:02;;;;;;;;;;;17.20;70.30;;;;;;5106556;28;20296;-74
2023/04/02 13:18:29;;;;;;;;;;;17.30;74.10;;;;;;5139845;27;20343;-74
2023/04/02 13:20:59;;;;;;;;;;;17.40;70.80;;;;;;5110904;28;19973;-75
2023/04/02 13:23:27;;;;;;;1.83;0.40;;;17.40;71.70;;;;;;5137799;27;19943;-75
2023/04/02 13:26:15;;;;;;;0.93;0.30;;;17.70;72.60;;;;;;5140832;27;20382;-74
2023/04/02 13:28:40;;;;;;;1.58;0.20;;;17.70;68.80;;;;;;5103052;28;20048;-74
2023/04/02 13:31:14;;;;;;;1.60;0.30;;;17.90;65.30;;;;;;5121906;28;20097;-75
2023/04/02 13:33:39;;;;;;;0.93;0.20;;;18.00;66.30;;;;;;5105796;28;20047;-75
2023/04/02 13:36:05;;;;;;;;;;;18.10;68.20;;;;;;5106186;28;20058;-75
2023/04/02 13:38:31;;;;;;;;;;;18.30;67.50;;;;;;5086497;28;20046;-75
2023/04/02 13:40:56;;;;;;;;;;;18.30;64.70;;;;;;5111182;28;19920;-75
2023/04/02 13:43:22;;;;;;;;;;;17.60;60.90;;;;;;5104808;28;19927;-75